Country
Station

 

Weather  for  Sault Ste Marie, Ont.  -  Canada    Canada

  
5 °C (41 °F)
    
 
 

Current METAR for Sault Ste Marie, Ont. is :

CYAM 161300Z 02011G19KT 10SM -RA FEW007 OVC035 05/04 A2966 RMK CF1NS8 CF TR SLP053

 

This is a report for Sault Ste Marie, Ont. - Canada.
 
The report was made 9 minutes ago, at 13:00 UTC .
The wind was blowing at a speed of 5.7 meters per second (12.7 miles per hour) with gusts up to 9.8 meters per second (21.9 miles per hour) from north/northeast (020°).
 
The temperature was 5 °C (41 °F), with a dew-point at 4 °C (39 °F).
The atmospheric pressure was 1004 hPa (29.66 inHg).
The relative humidity was 93.2%.
 
There were a few clouds at a height of 213 meters (700 feet). The sky was overcast from a height of 1067 meter (3500 feet)
 
The overall visibility was 16.1 kilometers (10.0 miles).
 
Currently light rain.

 
 
 
 

Country :   A   B   C   D   E   F   G   H   I   J   K   L   M   N   O   P   Q   R   S   T   U   V   W   Y   Z

 

Site Info  |  Disclaimer  |  Credits  |  Privacy
Contact us  |  Add to favorites
© 2013-2019 METARs - All rights reserved